Time;durP1;ratioP1;P1;durP2;ratioP2;P2;SDS_P1;SDS_P2;PMS_P1;PMS_P2;Temp;Humidity;BMP_temperature;BMP_pressure;BME280_temperature;BME280_humidity;BME280_pressure;Samples;Min_cycle;Max_cycle;Signal;HPM_P1;HPM_P2
2022/09/29 00:01:48;;;;;;;13.50;7.40;;;;;;;-141.97;65.15;47692.06;5031798;28;20222;-90
2022/09/29 00:04:14;;;;;;;10.50;6.87;;;;;;;-141.97;65.51;47382.63;5012416;28;20178;-90
2022/09/29 00:06:39;;;;;;;11.13;6.80;;;;;;;-141.97;65.96;47250.00;5013923;28;20191;-89
2022/09/29 00:09:05;;;;;;;11.60;7.10;;;;;;;-141.97;66.50;47488.31;5013453;28;20170;-88
2022/09/29 00:11:30;;;;;;;12.70;6.70;;;;;;;-141.97;66.43;47592.13;5033463;28;20182;-89
2022/09/29 00:13:56;;;;;;;12.83;7.20;;;;;;;-141.97;67.06;47326.88;5029249;28;20167;-90
2022/09/29 00:16:21;;;;;;;9.03;6.43;;;;;;;-141.97;66.85;47661.31;5002465;28;20249;-89
2022/09/29 00:18:46;;;;;;;12.10;6.23;;;;;;;-141.97;66.89;47392.22;5020303;28;20186;-89
2022/09/29 00:21:15;;;;;;;9.60;6.70;;;;;;;-141.97;67.07;47432.59;5003723;28;20170;-89
2022/09/29 00:23:41;;;;;;;12.17;6.97;;;;;;;-141.97;67.52;47472.94;5022598;28;20171;-89
2022/09/29 00:26:12;;;;;;;12.60;5.97;;;;;;;-141.97;66.45;47563.28;5003670;28;20197;-88
2022/09/29 00:28:40;;;;;;;10.27;5.60;;;;;;;-141.97;66.67;47403.75;5023174;28;20186;-88
2022/09/29 00:31:09;;;;;;;7.67;5.60;;;;;;;-141.97;66.98;47371.09;5021604;28;20206;-88
2022/09/29 00:33:36;;;;;;;9.40;6.10;;;;;;;-141.97;66.73;47559.44;5016636;28;20171;-87
2022/09/29 00:36:08;;;;;;;10.67;5.83;;;;;;;-141.97;66.92;47576.75;5016663;28;20250;-89
2022/09/29 00:38:34;;;;;;;12.43;6.10;;;;;;;-141.97;67.03;47357.63;5017267;28;20278;-90
2022/09/29 00:41:00;;;;;;;8.93;6.03;;;;;;;-141.97;67.52;47411.44;5001021;28;20170;-88
2022/09/29 00:43:49;;;;;;;10.03;6.33;;;;;;;-141.97;67.88;47534.44;5000529;28;20183;-88
2022/09/29 00:46:19;;;;;;;9.27;6.00;;;;;;;-141.97;67.87;47471.03;5017664;28;20213;-88
2022/09/29 00:48:46;;;;;;;10.70;6.40;;;;;;;-141.97;67.41;47480.63;5019900;28;20246;-89
2022/09/29 00:51:13;;;;;;;9.97;6.30;;;;;;;-141.97;67.23;47438.34;5000028;28;20175;-89
2022/09/29 00:53:40;;;;;;;8.93;6.47;;;;;;;-141.97;67.34;47544.06;5017013;28;20230;-88
2022/09/29 00:56:12;;;;;;;8.47;5.90;;;;;;;-141.97;67.50;47553.69;5022831;28;20170;-89
2022/09/29 00:58:53;;;;;;;9.03;6.50;;;;;;;-141.97;67.90;47546.00;5018992;28;20182;-90
2022/09/29 01:01:20;;;;;;;9.97;6.70;;;;;;;-141.97;68.22;47720.91;5017322;28;20165;-87
2022/09/29 01:03:48;;;;;;;12.53;6.40;;;;;;;-141.97;68.33;47463.34;4999465;28;20642;-88
2022/09/29 01:06:26;;;;;;;8.33;6.30;;;;;;;-141.97;69.10;47447.97;4999228;28;20209;-87
2022/09/29 01:09:05;;;;;;;9.60;6.83;;;;;;;-141.97;68.49;47553.69;5019302;28;20166;-88
2022/09/29 01:11:31;;;;;;;9.00;6.47;;;;;;;-141.97;68.67;47472.94;5021317;28;20627;-88
2022/09/29 01:14:02;;;;;;;13.60;7.67;;;;;;;-141.97;68.42;47542.16;5001743;28;20181;-86
2022/09/29 01:16:29;;;;;;;9.87;6.43;;;;;;;-141.97;69.68;47532.53;5000977;28;20245;-89
2022/09/29 01:18:56;;;;;;;7.80;6.20;;;;;;;-141.97;70.91;47682.47;5000959;28;20654;-89
2022/09/29 01:21:31;;;;;;;8.20;5.53;;;;;;;-141.97;71.74;47572.91;5000396;28;20196;-88
2022/09/29 01:24:41;;;;;;;6.07;5.47;;;;;;;-141.97;72.54;47561.38;5018754;28;20177;-88
2022/09/29 01:27:12;;;;;;;6.33;5.40;;;;;;;-141.97;73.42;47578.66;4938879;29;20221;-88
2022/09/29 01:30:06;;;;;;;7.63;5.80;;;;;;;-141.97;74.21;47549.84;4942008;29;20189;-88
2022/09/29 01:32:42;;;;;;;10.63;6.10;;;;;;;-141.97;74.69;47549.84;4951033;29;20209;-88
2022/09/29 01:35:07;;;;;;;8.23;5.67;;;;;;;-141.97;74.89;47555.59;4921965;29;20260;-88
2022/09/29 01:37:44;;;;;;;9.07;6.07;;;;;;;-141.97;74.98;47607.50;4936153;29;20649;-87
2022/09/29 01:40:16;;;;;;;8.90;6.20;;;;;;;-141.97;74.92;47699.75;4940691;29;20191;-88
2022/09/29 01:43:04;;;;;;;10.60;6.43;;;;;;;-141.97;75.78;47565.22;4938094;29;20192;-89
2022/09/29 01:45:33;;;;;;;8.47;6.20;;;;;;;-141.97;78.28;47417.22;4922381;29;20189;-89
2022/09/29 01:48:04;;;;;;;11.73;6.97;;;;;;;-141.97;79.48;47484.47;4939218;29;20310;-89
2022/09/29 01:50:40;;;;;;;10.20;6.30;;;;;;;-141.97;78.94;47496.00;4922007;29;20296;-88
2022/09/29 01:53:17;;;;;;;11.00;7.07;;;;;;;-141.97;79.78;47561.38;4921099;29;20185;-89
2022/09/29 01:55:49;;;;;;;11.83;7.13;;;;;;;-141.97;80.88;47380.69;4937015;29;20175;-89
2022/09/29 01:58:29;;;;;;;12.73;7.33;;;;;;;-141.97;81.46;47459.50;4936885;29;20211;-88
2022/09/29 02:01:01;;;;;;;10.17;6.80;;;;;;;-141.97;81.24;47449.88;4936816;29;20184;-88
2022/09/29 02:03:33;;;;;;;11.83;7.10;;;;;;;-141.97;81.00;47592.13;4944739;28;20194;-90
2022/09/29 02:06:05;;;;;;;9.10;6.47;;;;;;;-141.97;80.40;47572.91;4997898;28;20737;-89
2022/09/29 02:08:39;;;;;;;10.17;6.47;;;;;;;-141.97;79.70;47569.06;5012821;28;20167;-89
2022/09/29 02:11:07;;;;;;;9.60;5.50;;;;;;;-141.97;79.14;47576.75;5014526;28;20166;-88
2022/09/29 02:13:53;;;;;;;8.97;5.73;;;;;;;-141.97;79.69;47465.25;5015615;28;20177;-89
2022/09/29 02:16:25;;;;;;;8.33;5.83;;;;;;;-141.97;79.58;47357.63;4997691;28;20173;-88
2022/09/29 02:18:57;;;;;;;8.77;6.10;;;;;;;-141.97;79.53;47549.84;4997491;28;20182;-89
2022/09/29 02:21:23;;;;;;;9.10;5.90;;;;;;;-141.97;79.51;47720.91;5014734;28;20159;-89
2022/09/29 02:23:51;;;;;;;8.70;6.10;;;;;;;-141.97;79.46;47480.63;5015837;28;20163;-89
2022/09/29 02:26:18;;;;;;;10.90;6.20;;;;;;;-141.97;79.35;47438.34;4999338;28;20230;-89
2022/09/29 02:28:44;;;;;;;10.87;6.47;;;;;;;-141.97;79.92;47334.56;5015139;28;20234;-89
2022/09/29 02:31:10;;;;;;;9.10;6.70;;;;;;;-141.97;79.49;47665.16;5015720;28;20167;-87
2022/09/29 02:33:35;;;;;;;10.33;6.13;;;;;;;-141.97;79.26;47546.00;4999143;28;20276;-88
2022/09/29 02:36:17;;;;;;;9.50;6.27;;;;;;;-141.97;79.20;47688.22;5016095;28;20642;-88
2022/09/29 02:38:50;;;;;;;9.47;6.53;;;;;;;-141.97;79.90;47592.13;5016585;28;20167;-87
2022/09/29 02:41:44;;;;;;;12.83;7.10;;;;;;;-141.97;79.38;47582.50;5000288;28;20185;-89
2022/09/29 02:44:51;;;;;;;10.20;6.30;;;;;;;-141.97;80.07;47559.44;5014666;28;20174;-88
2022/09/29 02:47:48;;;;;;;10.20;6.80;;;;;;;-141.97;79.75;47542.16;4939182;29;20217;-89
2022/09/29 02:50:34;;;;;;;14.57;7.17;;;;;;;-141.97;79.29;47569.06;4940431;29;20201;-88
2022/09/29 02:53:22;;;;;;;9.80;6.80;;;;;;;-141.97;79.58;47532.53;4951737;29;20217;-88
2022/09/29 02:56:10;;;;;;;11.07;6.80;;;;;;;-141.97;79.45;47582.50;4948937;29;20173;-89
2022/09/29 02:59:13;;;;;;;8.93;6.30;;;;;;;-141.97;79.27;47565.22;4942638;29;20181;-89
2022/09/29 03:01:53;;;;;;;8.53;5.70;;;;;;;-141.97;79.03;47530.59;4865727;29;20782;-89
2022/09/29 03:04:20;;;;;;;8.60;6.17;;;;;;;-141.97;79.24;47496.00;4867082;29;20192;-89
2022/09/29 03:06:47;;;;;;;11.90;5.63;;;;;;;-141.97;79.29;47567.13;4895402;29;20262;-89
2022/09/29 03:09:12;;;;;;;8.43;6.27;;;;;;;-141.97;79.32;47519.06;4877201;29;20303;-89
2022/09/29 03:11:38;;;;;;;10.10;6.27;;;;;;;-141.97;78.98;47578.66;4884573;29;20207;-89
2022/09/29 03:14:05;;;;;;;11.37;6.63;;;;;;;-141.97;79.36;47607.50;4868520;29;20180;-89
2022/09/29 03:16:31;;;;;;;10.77;6.47;;;;;;;-141.97;79.38;47584.44;4884827;29;20235;-89
2022/09/29 03:18:56;;;;;;;11.23;5.90;;;;;;;-141.97;79.10;47692.06;4869496;29;20239;-89
2022/09/29 03:21:22;;;;;;;12.37;6.33;;;;;;;-141.97;79.13;47567.13;4884849;29;20680;-89
2022/09/29 03:23:48;;;;;;;10.60;6.60;;;;;;;-141.97;79.22;47588.28;4942141;29;20317;-89
2022/09/29 03:26:13;;;;;;;10.33;6.50;;;;;;;-141.97;79.94;47684.38;4946441;29;20204;-90
2022/09/29 03:28:39;;;;;;;11.27;7.10;;;;;;;-141.97;79.73;47461.41;4961544;28;20199;-90
2022/09/29 03:31:06;;;;;;;9.93;6.60;;;;;;;-141.97;79.44;47576.75;4961078;29;20165;-90
2022/09/29 03:33:32;;;;;;;10.43;6.90;;;;;;;-141.97;79.57;47613.25;4963059;29;20692;-90
2022/09/29 03:35:57;;;;;;;8.10;6.27;;;;;;;-141.97;79.29;47438.34;5001074;28;20186;-90
2022/09/29 03:38:22;;;;;;;10.23;6.53;;;;;;;-141.97;79.95;47474.88;5021498;28;20171;-90
2022/09/29 03:40:48;;;;;;;8.23;6.20;;;;;;;-141.97;79.85;47665.16;5021313;28;20159;-90
2022/09/29 03:43:13;;;;;;;13.77;6.30;;;;;;;-141.97;79.51;47511.38;5003744;28;20999;-89
2022/09/29 03:45:48;;;;;;;11.23;6.13;;;;;;;-141.97;79.80;47594.03;5003304;28;20163;-89
2022/09/29 03:48:14;;;;;;;9.90;6.40;;;;;;;-141.97;79.77;47713.22;5021564;28;20162;-91
2022/09/29 03:50:39;;;;;;;9.43;6.47;;;;;;;-141.97;79.67;47463.34;5004173;28;20235;-88
2022/09/29 03:53:05;;;;;;;11.57;6.60;;;;;;;-141.97;80.16;47430.66;5003441;28;20175;-87
2022/09/29 03:55:30;;;;;;;10.53;6.97;;;;;;;-141.97;80.91;47695.91;5003651;28;20261;-90
2022/09/29 03:57:56;;;;;;;10.23;6.70;;;;;;;-141.97;80.76;47515.22;5003111;28;20177;-88
2022/09/29 04:00:21;;;;;;;11.67;6.90;;;;;;;-141.97;81.95;47742.03;5003210;28;20245;-89
2022/09/29 04:02:47;;;;;;;11.63;7.07;;;;;;;-141.97;83.48;47569.06;5003043;28;20237;-88
2022/09/29 04:05:12;;;;;;;13.70;7.50;;;;;;;-141.97;82.38;47572.91;5004117;28;20175;-89
2022/09/29 04:07:38;;;;;;;17.37;8.73;;;;;;;-141.97;81.72;47632.47;5003604;28;20194;-89
2022/09/29 04:10:04;;;;;;;17.47;10.73;;;;;;;-141.97;81.24;47522.91;5003332;28;20178;-89
2022/09/29 04:12:29;;;;;;;17.23;10.57;;;;;;;-141.97;81.30;47549.84;5003816;28;20213;-89
2022/09/29 04:14:55;;;;;;;19.33;12.00;;;;;;;-141.97;81.05;47742.03;5020462;28;20545;-88
2022/09/29 04:17:20;;;;;;;23.67;14.00;;;;;;;-141.97;80.48;47661.31;5020061;28;20234;-90
2022/09/29 04:19:46;;;;;;;17.30;9.10;;;;;;;-141.97;79.61;47588.28;5009501;28;20257;-89
2022/09/29 04:22:15;;;;;;;14.30;8.30;;;;;;;-141.97;79.26;47580.59;5033263;28;20631;-89
2022/09/29 04:24:41;;;;;;;14.83;8.47;;;;;;;-141.97;79.56;47572.91;5018529;28;20182;-88
2022/09/29 04:27:06;;;;;;;16.57;8.80;;;;;;;-141.97;79.26;47680.53;5018882;28;20218;-88
2022/09/29 04:29:31;;;;;;;20.87;8.93;;;;;;;-141.97;79.46;47538.28;5019273;28;20192;-89
2022/09/29 04:31:57;;;;;;;136.80;98.70;;;;;;;-141.97;79.23;47546.00;5001378;28;20619;-89
2022/09/29 04:34:22;;;;;;;175.77;125.10;;;;;;;-141.97;78.75;47551.75;4999935;28;20186;-88
2022/09/29 04:36:48;;;;;;;105.90;75.77;;;;;;;-141.97;79.83;47601.72;5016459;28;20172;-88
2022/09/29 04:39:13;;;;;;;50.80;35.73;;;;;;;-141.97;80.60;47526.75;5031613;28;20643;-88
2022/09/29 04:41:40;;;;;;;32.17;20.80;;;;;;;-141.97;81.28;47630.56;5035709;28;20178;-90
2022/09/29 04:44:05;;;;;;;22.07;13.67;;;;;;;-141.97;82.41;47611.34;5017133;28;20198;-88
2022/09/29 04:46:31;;;;;;;14.20;8.90;;;;;;;-141.97;84.03;47574.81;5020430;28;20210;-88
2022/09/29 04:48:56;;;;;;;13.07;7.70;;;;;;;-141.97;83.78;47590.19;5023736;28;20192;-89
2022/09/29 04:51:22;;;;;;;11.80;7.73;;;;;;;-141.97;84.23;47615.19;5027783;28;20201;-88
2022/09/29 04:53:47;;;;;;;16.77;8.40;;;;;;;-141.97;84.29;47569.06;5027492;28;20184;-89
2022/09/29 04:56:13;;;;;;;15.03;8.33;;;;;;;-141.97;85.38;47717.06;5028715;28;20865;-87
2022/09/29 04:58:38;;;;;;;18.37;8.73;;;;;;;-141.97;84.49;47722.81;5027975;28;20784;-87
2022/09/29 05:01:09;;;;;;;18.07;9.03;;;;;;;-141.97;82.81;47526.75;5030131;28;20201;-89
2022/09/29 05:03:37;;;;;;;17.63;9.37;;;;;;;-141.97;81.61;47565.22;5024182;28;20214;-88
2022/09/29 05:06:04;;;;;;;15.70;9.63;;;;;;;-141.97;80.85;47444.13;4998405;28;20282;-90
2022/09/29 05:08:30;;;;;;;21.93;11.90;;;;;;;-141.97;80.92;47599.81;5016330;28;20214;-88
2022/09/29 05:10:56;;;;;;;18.50;9.03;;;;;;;-141.97;81.28;47417.22;5013446;28;20190;-88
2022/09/29 05:13:25;;;;;;;16.17;9.03;;;;;;;-141.97;80.94;47595.97;5021410;28;20249;-89
2022/09/29 05:15:55;;;;;;;15.20;8.27;;;;;;;-141.97;80.10;47567.13;5029573;28;20186;-90
2022/09/29 05:18:20;;;;;;;14.83;8.23;;;;;;;-141.97;80.36;47576.75;5027818;28;20235;-88
2022/09/29 05:20:46;;;;;;;15.13;7.93;;;;;;;-141.97;79.95;47507.53;5017063;28;20245;-86
2022/09/29 05:23:11;;;;;;;16.13;7.83;;;;;;;-141.97;79.40;47601.72;5025293;28;20203;-87
2022/09/29 05:25:37;;;;;;;12.70;7.73;;;;;;;-141.97;78.91;47580.59;5008399;28;20197;-88
2022/09/29 05:28:02;;;;;;;12.40;7.33;;;;;;;-141.97;78.27;47488.31;5003934;28;20183;-88
2022/09/29 05:30:28;;;;;;;13.03;7.90;;;;;;;-141.97;77.73;47586.34;5013110;28;20213;-89
2022/09/29 05:32:53;;;;;;;14.90;7.70;;;;;;;-141.97;78.11;47603.66;5013740;28;20234;-88
2022/09/29 05:35:19;;;;;;;13.30;7.73;;;;;;;-141.97;78.24;47653.63;5029298;28;20194;-89
2022/09/29 05:37:45;;;;;;;17.37;8.30;;;;;;;-141.97;78.55;47659.38;5011721;28;20237;-88
2022/09/29 05:40:22;;;;;;;13.03;8.20;;;;;;;-141.97;78.51;47686.31;5012683;28;20170;-89
2022/09/29 05:42:49;;;;;;;13.70;8.10;;;;;;;-141.97;77.65;47401.84;5029884;28;20179;-88
2022/09/29 05:45:14;;;;;;;11.83;7.60;;;;;;;-141.97;77.87;47505.63;5028320;28;20210;-87
2022/09/29 05:47:44;;;;;;;16.20;7.73;;;;;;;-141.97;78.23;47369.16;5027330;28;20217;-87
2022/09/29 05:50:13;;;;;;;11.77;7.07;;;;;;;-141.97;78.08;47572.91;5025947;28;20282;-89
2022/09/29 05:52:39;;;;;;;14.07;7.60;;;;;;;-141.97;77.92;47565.22;5025509;28;21040;-88
2022/09/29 05:55:09;;;;;;;17.13;7.47;;;;;;;-141.97;77.79;47532.53;5011577;28;20194;-88
2022/09/29 05:57:35;;;;;;;13.07;7.83;;;;;;;-141.97;77.68;47738.19;5009351;28;20204;-89
2022/09/29 06:00:03;;;;;;;14.77;7.53;;;;;;;-141.97;76.41;47611.34;5024558;28;20202;-88
2022/09/29 06:02:28;;;;;;;11.50;7.80;;;;;;;-141.97;74.77;47546.00;5028190;28;20175;-88
2022/09/29 06:04:56;;;;;;;10.77;6.60;;;;;;;-141.97;74.28;47599.81;5001494;28;20187;-89
2022/09/29 06:07:22;;;;;;;9.13;6.23;;;;;;;-141.97;74.13;47738.19;5027288;28;20233;-88
2022/09/29 06:09:48;;;;;;;11.53;6.47;;;;;;;-141.97;73.04;47540.22;5014531;28;20186;-89
2022/09/29 06:12:13;;;;;;;10.27;6.57;;;;;;;-141.97;72.27;47340.34;5012998;28;20197;-88
2022/09/29 06:14:39;;;;;;;11.80;6.80;;;;;;;-141.97;71.53;47688.22;5029586;28;20183;-89
2022/09/29 06:17:04;;;;;;;9.97;6.53;;;;;;;-141.97;70.66;47517.16;5042584;28;20229;-89
2022/09/29 06:19:30;;;;;;;10.27;6.10;;;;;;;-141.97;70.09;47578.66;5050405;28;20241;-89
2022/09/29 06:21:55;;;;;;;11.10;6.10;;;;;;;-141.97;68.94;47509.47;5048301;28;20720;-89
2022/09/29 06:24:21;;;;;;;13.33;5.53;;;;;;;-141.97;68.73;47572.91;5047379;28;20200;-87
2022/09/29 06:26:46;;;;;;;7.77;5.40;;;;;;;-141.97;67.58;47665.16;5049236;28;20261;-88
2022/09/29 06:29:11;;;;;;;7.47;5.50;;;;;;;-141.97;66.31;47499.84;5030651;28;20166;-89
2022/09/29 06:31:40;;;;;;;12.23;6.13;;;;;;;-141.97;65.39;47511.38;5014222;28;20277;-89
2022/09/29 06:34:05;;;;;;;10.90;6.47;;;;;;;-141.97;64.87;47526.75;5025507;28;20193;-89
2022/09/29 06:39:17;;;;;;;11.70;6.83;;;;;;;-141.97;63.15;47472.94;5046936;28;20184;-88
2022/09/29 06:41:47;;;;;;;16.80;6.50;;;;;;;-141.97;62.38;47578.66;5048773;28;20182;-88
2022/09/29 06:44:14;;;;;;;12.77;5.67;;;;;;;-141.97;61.42;47546.00;5028612;28;20173;-88
2022/09/29 06:46:40;;;;;;;11.87;5.77;;;;;;;-141.97;60.56;47540.22;5045078;28;20212;-89
2022/09/29 06:49:05;;;;;;;11.00;5.77;;;;;;;-141.97;60.00;47699.75;5025645;28;20186;-88
2022/09/29 06:51:31;;;;;;;9.33;5.27;;;;;;;-141.97;59.71;47446.03;5042636;28;20178;-88
2022/09/29 06:53:56;;;;;;;7.50;4.83;;;;;;;-141.97;59.17;47540.22;5045482;28;20198;-88
2022/09/29 06:56:22;;;;;;;7.77;5.43;;;;;;;-141.97;59.20;47519.06;5042091;28;20200;-89
2022/09/29 06:58:47;;;;;;;8.17;5.13;;;;;;;-141.97;59.09;47369.16;5041647;28;20216;-88
2022/09/29 07:01:13;;;;;;;10.20;4.87;;;;;;;-141.97;57.88;47342.25;5043601;28;20190;-88
2022/09/29 07:03:39;;;;;;;9.90;4.87;;;;;;;-141.97;57.92;47438.34;5039799;28;20580;-89
2022/09/29 07:06:06;;;;;;;6.33;4.63;;;;;;;-141.97;56.68;47663.22;5033646;28;20660;-88
2022/09/29 07:08:35;;;;;;;9.37;5.33;;;;;;;-141.97;55.93;47482.56;5042067;28;20178;-89
2022/09/29 07:11:02;;;;;;;10.60;5.80;;;;;;;-141.97;56.01;47515.22;5036790;28;20194;-89
2022/09/29 07:13:27;;;;;;;8.47;5.20;;;;;;;-141.97;57.61;47488.31;5037608;28;20190;-89
2022/09/29 07:15:53;;;;;;;10.20;5.03;;;;;;;-141.97;57.39;47388.38;5014006;28;20249;-88
2022/09/29 07:18:19;;;;;;;6.93;5.00;;;;;;;-141.97;56.90;47519.06;4994705;28;1289022;-88
2022/09/29 07:20:44;;;;;;;10.67;5.20;;;;;;;-141.97;56.88;47669.00;5061074;28;20200;-87
2022/09/29 07:23:10;;;;;;;11.27;5.37;;;;;;;-141.97;56.44;47484.47;5058241;28;20254;-87
2022/09/29 07:25:36;;;;;;;10.77;5.50;;;;;;;-141.97;54.86;47499.84;5030616;28;20196;-89
2022/09/29 07:28:02;;;;;;;10.47;5.13;;;;;;;-141.97;53.74;47484.47;5041211;28;20574;-89
2022/09/29 07:30:27;;;;;;;8.43;4.63;;;;;;;-141.97;52.75;47494.09;5059778;28;20181;-88
2022/09/29 07:32:54;;;;;;;8.40;4.93;;;;;;;-141.97;53.32;47497.94;5041383;28;20184;-87
2022/09/29 07:35:20;;;;;;;5.97;4.30;;;;;;;-141.97;52.11;47411.44;5058449;28;20197;-88
2022/09/29 07:37:55;;;;;;;7.17;4.00;;;;;;;-141.97;51.00;47492.16;5060712;28;20667;-87
2022/09/29 07:40:22;;;;;;;7.67;4.60;;;;;;;-141.97;51.01;47711.28;5060602;28;20177;-88
2022/09/29 07:42:48;;;;;;;9.20;4.60;;;;;;;-141.97;50.46;47478.72;5042782;28;20181;-88
2022/09/29 07:45:14;;;;;;;6.77;4.60;;;;;;;-141.97;49.72;47620.94;5057346;28;20208;-88
2022/09/29 07:47:40;;;;;;;8.93;4.50;;;;;;;-141.97;49.31;47421.06;5059649;28;20203;-89
2022/09/29 07:50:05;;;;;;;8.50;4.67;;;;;;;-141.97;49.04;47401.84;5057129;28;20264;-88
2022/09/29 07:52:31;;;;;;;11.53;4.83;;;;;;;-141.97;48.36;47672.84;5040031;28;20185;-88
2022/09/29 07:54:56;;;;;;;6.93;4.50;;;;;;;-141.97;47.78;47478.72;5058730;28;20645;-88
2022/09/29 07:57:22;;;;;;;7.50;4.40;;;;;;;-141.97;47.31;47380.69;5039169;28;20593;-88
2022/09/29 07:59:47;;;;;;;5.40;4.20;;;;;;;-141.97;47.14;47449.88;5054379;28;20247;-87
2022/09/29 08:02:12;;;;;;;6.50;4.00;;;;;;;-141.97;47.66;47469.09;5053905;28;20676;-89
2022/09/29 08:04:38;;;;;;;9.23;4.20;;;;;;;-141.97;47.00;47376.84;5054155;28;20274;-88
2022/09/29 08:07:03;;;;;;;5.73;4.27;;;;;;;-141.97;46.27;47365.31;5041096;28;20233;-88
2022/09/29 08:09:29;;;;;;;6.03;4.00;;;;;;;-141.97;46.87;47328.81;5026652;28;20213;-87
2022/09/29 08:11:54;;;;;;;5.03;3.70;;;;;;;-141.97;46.21;47436.44;5035290;28;20214;-88
2022/09/29 08:14:20;;;;;;;7.37;3.50;;;;;;;-141.97;45.28;47399.91;5015155;28;20993;-88
2022/09/29 08:16:45;;;;;;;6.53;3.53;;;;;;;-141.97;44.74;47561.38;5033527;28;20224;-88
2022/09/29 08:19:10;;;;;;;4.97;3.37;;;;;;;-141.97;45.56;47626.72;5032780;28;20301;-87
2022/09/29 08:21:37;;;;;;;8.13;3.70;;;;;;;-141.97;47.48;47440.28;5032704;28;20197;-87
2022/09/29 08:24:04;;;;;;;6.57;3.23;;;;;;;-141.97;47.67;47611.34;5032623;28;20240;-88
2022/09/29 08:26:34;;;;;;;7.33;3.77;;;;;;;-141.97;47.15;47419.13;5016262;28;20233;-88
2022/09/29 08:29:00;;;;;;;6.37;3.57;;;;;;;-141.97;47.51;47348.03;5016248;28;20236;-89
2022/09/29 08:31:25;;;;;;;6.57;3.80;;;;;;;-141.97;47.49;47465.25;5015927;28;20193;-89
2022/09/29 08:33:51;;;;;;;6.33;3.83;;;;;;;-141.97;46.18;47536.38;5034127;28;20186;-88
2022/09/29 08:36:18;;;;;;;7.67;4.00;;;;;;;-141.97;44.94;47507.53;5035780;28;20205;-88
2022/09/29 08:38:49;;;;;;;8.33;4.17;;;;;;;-141.97;45.20;47376.84;5044365;28;20185;-88
2022/09/29 08:41:37;;;;;;;6.40;4.40;;;;;;;-141.97;43.86;47422.97;5041277;28;20186;-87
2022/09/29 08:44:40;;;;;;;4.93;3.67;;;;;;;-141.97;43.99;47465.25;5035707;28;20213;-88
2022/09/29 08:47:27;;;;;;;5.97;3.80;;;;;;;-141.97;44.02;47434.50;4935814;29;20217;-87
2022/09/29 08:49:58;;;;;;;7.80;3.90;;;;;;;-141.97;43.21;47484.47;4936445;29;20292;-89
2022/09/29 08:52:30;;;;;;;7.77;3.57;;;;;;;-141.97;44.94;47684.38;4935984;29;20950;-88
2022/09/29 08:55:21;;;;;;;4.67;3.73;;;;;;;-141.97;44.15;47496.00;4938666;29;20248;-87
2022/09/29 08:57:49;;;;;;;6.57;3.40;;;;;;;-141.97;43.41;47453.72;4948636;29;20201;-88
2022/09/29 09:00:18;;;;;;;9.47;4.00;;;;;;;-141.97;42.74;47405.69;4954146;28;20200;-88
2022/09/29 09:03:24;;;;;;;9.48;4.18;;;;;;;-141.97;41.73;47376.84;4956084;29;20201;-88
2022/09/29 09:05:52;;;;;;;9.48;4.00;;;;;;;-141.97;41.18;47442.19;4920520;29;20199;-88
2022/09/29 09:08:40;;;;;;;7.18;3.78;;;;;;;-141.97;40.79;47407.59;4905929;29;20587;-88
2022/09/29 09:11:26;;;;;;;5.70;3.45;;;;;;;-141.97;40.11;47430.66;4907022;29;20208;-86
2022/09/29 09:14:03;;;;;;;6.70;3.60;;;;;;;-141.97;40.12;47417.22;4914175;29;20189;-86
2022/09/29 09:16:49;;;;;;;6.82;3.50;;;;;;;-141.97;40.08;47415.28;4916484;29;20204;-87
2022/09/29 09:19:46;;;;;;;7.65;3.80;;;;;;;-141.97;39.78;47409.53;4903079;29;20205;-88
2022/09/29 09:22:23;;;;;;;5.03;3.55;;;;;;;-141.97;39.26;47407.59;4920987;28;20247;-88
2022/09/29 09:25:06;;;;;;;6.60;3.50;;;;;;;-141.97;40.32;47407.59;4960765;28;21247;-87
2022/09/29 09:27:39;;;;;;;6.05;3.63;;;;;;;-141.97;40.20;47426.81;4973329;28;20236;-86
2022/09/29 09:30:16;;;;;;;8.07;4.20;;;;;;;-141.97;40.63;47442.19;4983151;28;20215;-86
2022/09/29 09:32:58;;;;;;;9.07;4.07;;;;;;;-141.97;41.46;47392.22;4992281;28;20194;-86
2022/09/29 09:36:08;;;;;;;5.95;4.20;;;;;;;-141.97;41.21;47461.41;4975134;28;20329;-87
2022/09/29 09:38:45;;;;;;;8.30;3.70;;;;;;;-141.97;41.06;47557.53;4972072;28;20191;-87
2022/09/29 09:41:17;;;;;;;8.50;4.03;;;;;;;-141.97;40.86;47499.84;4975043;28;20236;-87
2022/09/29 09:43:50;;;;;;;7.40;4.15;;;;;;;-141.97;40.64;47330.72;5014616;28;20266;-87
2022/09/29 09:46:35;;;;;;;6.97;4.20;;;;;;;-141.97;41.10;47444.13;5014226;28;20214;-88
2022/09/29 09:49:16;;;;;;;5.95;4.32;;;;;;;-141.97;41.22;47630.56;4995766;28;20192;-87
2022/09/29 09:51:50;;;;;;;7.13;4.43;;;;;;;-141.97;41.45;47457.56;5010940;28;20186;-86
2022/09/29 09:54:28;;;;;;;5.22;4.32;;;;;;;-141.97;41.55;47422.97;5010109;28;20749;-87
2022/09/29 09:57:02;;;;;;;8.75;4.50;;;;;;;-141.97;41.94;47461.41;5009750;28;20236;-86
2022/09/29 09:59:58;;;;;;;8.77;4.63;;;;;;;-141.97;41.97;47422.97;5008968;28;20200;-87
2022/09/29 10:02:24;;;;;;;10.82;4.80;;;;;;;-141.97;42.19;47421.06;5010734;28;20280;-86
2022/09/29 10:04:52;;;;;;;8.80;4.60;;;;;;;-141.97;42.15;47407.59;5010608;28;20209;-87
2022/09/29 10:07:23;;;;;;;7.90;4.80;;;;;;;-141.97;41.85;47373.00;4999483;28;20304;-87
2022/09/29 10:09:49;;;;;;;14.18;5.82;;;;;;;-141.97;41.58;47415.28;4998942;28;20634;-88
2022/09/29 10:12:17;;;;;;;11.10;5.38;;;;;;;-141.97;41.30;47494.09;5000719;28;20212;-87
2022/09/29 10:14:51;;;;;;;11.48;6.38;;;;;;;-141.97;41.12;47434.50;5027984;28;20667;-87
2022/09/29 10:17:20;;;;;;;14.20;5.55;;;;;;;-141.97;40.72;47396.06;5031913;28;20232;-87
2022/09/29 10:19:53;;;;;;;16.20;5.63;;;;;;;-141.97;40.49;47384.53;5032800;28;20192;-87
2022/09/29 10:22:19;;;;;;;13.02;5.38;;;;;;;-141.97;40.46;47407.59;5032170;28;20195;-86
2022/09/29 10:24:45;;;;;;;13.05;5.38;;;;;;;-141.97;40.17;47276.91;5025783;28;20196;-86
2022/09/29 10:27:17;;;;;;;13.48;5.60;;;;;;;-141.97;39.98;47424.91;5033075;28;20212;-87
2022/09/29 10:29:49;;;;;;;10.95;5.45;;;;;;;-141.97;40.58;47636.31;5049732;28;20199;-84
2022/09/29 10:32:21;;;;;;;9.35;5.30;;;;;;;-141.97;39.94;47353.78;5036045;28;20256;-86
2022/09/29 10:34:53;;;;;;;10.68;5.68;;;;;;;-141.97;40.11;47384.53;5033749;28;20206;-87
2022/09/29 10:37:19;;;;;;;12.02;5.20;;;;;;;-141.97;39.19;47382.63;5034130;28;20698;-86
2022/09/29 10:39:47;;;;;;;8.82;4.75;;;;;;;-141.97;38.74;47388.38;5014896;28;20202;-86
2022/09/29 10:42:19;;;;;;;13.38;5.22;;;;;;;-141.97;39.09;47401.84;5032367;28;20263;-87
2022/09/29 10:44:50;;;;;;;11.13;4.72;;;;;;;-141.97;39.33;47409.53;5031873;28;20185;-86
2022/09/29 10:47:16;;;;;;;6.38;4.40;;;;;;;-141.97;38.53;47405.69;5033048;28;20217;-87
2022/09/29 10:49:41;;;;;;;6.00;4.35;;;;;;;-141.97;38.81;47565.22;5031763;28;20177;-88
2022/09/29 10:52:20;;;;;;;7.32;4.10;;;;;;;-141.97;38.64;47421.06;5014731;28;20189;-83
2022/09/29 10:54:58;;;;;;;5.72;3.85;;;;;;;-141.97;38.36;47319.19;5031116;28;20209;-85
2022/09/29 10:57:27;;;;;;;5.10;4.00;;;;;;;-141.97;38.78;47665.16;5031514;28;20264;-88
2022/09/29 10:59:55;;;;;;;4.47;3.83;;;;;;;-141.97;38.43;47446.03;5014215;28;20706;-87
2022/09/29 11:02:30;;;;;;;8.02;4.10;;;;;;;-141.97;38.36;47338.41;5032977;28;20193;-88
2022/09/29 11:04:59;;;;;;;6.68;4.40;;;;;;;-141.97;38.70;47430.66;5014450;28;20244;-88
2022/09/29 11:07:25;;;;;;;6.75;3.97;;;;;;;-141.97;38.44;47349.94;5018173;28;20690;-87
2022/09/29 11:09:53;;;;;;;8.90;3.88;;;;;;;-141.97;38.59;47380.69;5029657;28;20188;-87
2022/09/29 11:12:32;;;;;;;10.02;4.38;;;;;;;-141.97;39.27;47376.84;5035170;28;20180;-85
2022/09/29 11:15:01;;;;;;;5.43;3.85;;;;;;;-141.97;38.75;47426.81;5034802;28;20181;-87
2022/09/29 11:17:36;;;;;;;5.70;3.85;;;;;;;-141.97;37.99;47396.06;5043671;28;20229;-85
2022/09/29 11:20:05;;;;;;;7.38;4.07;;;;;;;-141.97;38.26;47407.59;5047867;28;20183;-86
2022/09/29 11:22:42;;;;;;;7.03;4.20;;;;;;;-141.97;39.00;47411.44;5033384;28;20206;-85
2022/09/29 11:25:53;;;;;;;7.28;4.10;;;;;;;-141.97;39.22;47432.59;5034913;28;20724;-87
2022/09/29 11:28:36;;;;;;;8.57;4.22;;;;;;;-141.97;38.65;47405.69;4960624;28;20216;-87
2022/09/29 11:31:12;;;;;;;6.72;4.05;;;;;;;-141.97;38.98;47411.44;4956837;29;20199;-87